sensor_id;sensor_type;location;lat;lon;timestamp;P1;durP1;ratioP1;P2;durP2;ratioP2
75535;SDS011;64119;52.070;20.804;2023-08-06T00:01:41;13.40;;;8.50;;
75535;SDS011;64119;52.070;20.804;2023-08-06T00:04:08;11.70;;;7.00;;
75535;SDS011;64119;52.070;20.804;2023-08-06T00:06:36;9.60;;;6.40;;
75535;SDS011;64119;52.070;20.804;2023-08-06T00:09:04;8.60;;;6.00;;
75535;SDS011;64119;52.070;20.804;2023-08-06T00:11:32;8.90;;;5.80;;
75535;SDS011;64119;52.070;20.804;2023-08-06T00:13:59;7.80;;;5.30;;
75535;SDS011;64119;52.070;20.804;2023-08-06T00:16:27;7.40;;;5.00;;
75535;SDS011;64119;52.070;20.804;2023-08-06T00:18:55;7.30;;;5.70;;
75535;SDS011;64119;52.070;20.804;2023-08-06T00:21:23;7.60;;;5.10;;
75535;SDS011;64119;52.070;20.804;2023-08-06T00:23:50;9.20;;;5.60;;
75535;SDS011;64119;52.070;20.804;2023-08-06T00:26:19;7.10;;;5.20;;
75535;SDS011;64119;52.070;20.804;2023-08-06T00:28:47;7.80;;;5.50;;
75535;SDS011;64119;52.070;20.804;2023-08-06T00:31:15;5.70;;;3.90;;
75535;SDS011;64119;52.070;20.804;2023-08-06T00:33:43;6.10;;;4.60;;
75535;SDS011;64119;52.070;20.804;2023-08-06T00:36:10;7.90;;;4.00;;
75535;SDS011;64119;52.070;20.804;2023-08-06T00:38:38;7.40;;;4.20;;
75535;SDS011;64119;52.070;20.804;2023-08-06T00:41:06;5.80;;;4.40;;
75535;SDS011;64119;52.070;20.804;2023-08-06T00:43:33;7.30;;;4.60;;
75535;SDS011;64119;52.070;20.804;2023-08-06T00:46:01;6.90;;;4.60;;
75535;SDS011;64119;52.070;20.804;2023-08-06T00:48:30;7.50;;;5.20;;
75535;SDS011;64119;52.070;20.804;2023-08-06T00:50:59;8.20;;;5.30;;
75535;SDS011;64119;52.070;20.804;2023-08-06T00:53:28;10.70;;;7.10;;
75535;SDS011;64119;52.070;20.804;2023-08-06T00:55:56;10.10;;;6.10;;
75535;SDS011;64119;52.070;20.804;2023-08-06T00:58:25;9.90;;;6.20;;
75535;SDS011;64119;52.070;20.804;2023-08-06T01:00:53;9.60;;;6.50;;
75535;SDS011;64119;52.070;20.804;2023-08-06T01:03:21;12.40;;;6.40;;
75535;SDS011;64119;52.070;20.804;2023-08-06T01:05:49;12.40;;;7.30;;
75535;SDS011;64119;52.070;20.804;2023-08-06T01:11:17;9.80;;;6.40;;
75535;SDS011;64119;52.070;20.804;2023-08-06T01:13:56;10.30;;;6.60;;
75535;SDS011;64119;52.070;20.804;2023-08-06T01:16:29;10.80;;;7.00;;
75535;SDS011;64119;52.070;20.804;2023-08-06T01:18:58;10.40;;;7.60;;
75535;SDS011;64119;52.070;20.804;2023-08-06T01:21:26;10.90;;;7.10;;
75535;SDS011;64119;52.070;20.804;2023-08-06T01:23:53;13.40;;;7.70;;
75535;SDS011;64119;52.070;20.804;2023-08-06T01:29:10;14.80;;;8.60;;
75535;SDS011;64119;52.070;20.804;2023-08-06T01:31:43;12.70;;;8.50;;
75535;SDS011;64119;52.070;20.804;2023-08-06T01:34:21;12.00;;;7.90;;
75535;SDS011;64119;52.070;20.804;2023-08-06T01:36:51;11.40;;;8.10;;
75535;SDS011;64119;52.070;20.804;2023-08-06T01:39:19;12.80;;;8.80;;
75535;SDS011;64119;52.070;20.804;2023-08-06T01:41:48;10.60;;;7.60;;
75535;SDS011;64119;52.070;20.804;2023-08-06T01:44:17;14.00;;;9.20;;
75535;SDS011;64119;52.070;20.804;2023-08-06T01:46:45;11.20;;;8.50;;
75535;SDS011;64119;52.070;20.804;2023-08-06T01:49:12;10.90;;;7.50;;
75535;SDS011;64119;52.070;20.804;2023-08-06T01:51:40;12.10;;;8.00;;
75535;SDS011;64119;52.070;20.804;2023-08-06T01:54:08;14.00;;;8.50;;
75535;SDS011;64119;52.070;20.804;2023-08-06T01:56:35;11.50;;;8.60;;
75535;SDS011;64119;52.070;20.804;2023-08-06T01:59:03;13.30;;;8.70;;
75535;SDS011;64119;52.070;20.804;2023-08-06T02:01:31;12.80;;;8.60;;
75535;SDS011;64119;52.070;20.804;2023-08-06T02:03:59;13.50;;;9.00;;
75535;SDS011;64119;52.070;20.804;2023-08-06T02:06:27;14.60;;;9.90;;
75535;SDS011;64119;52.070;20.804;2023-08-06T02:08:55;14.60;;;9.70;;
75535;SDS011;64119;52.070;20.804;2023-08-06T02:11:23;15.80;;;10.40;;
75535;SDS011;64119;52.070;20.804;2023-08-06T02:13:50;13.30;;;9.60;;
75535;SDS011;64119;52.070;20.804;2023-08-06T02:16:18;13.90;;;8.70;;
75535;SDS011;64119;52.070;20.804;2023-08-06T02:18:46;14.70;;;8.80;;
75535;SDS011;64119;52.070;20.804;2023-08-06T02:21:14;15.60;;;9.00;;
75535;SDS011;64119;52.070;20.804;2023-08-06T02:23:42;13.70;;;9.20;;
75535;SDS011;64119;52.070;20.804;2023-08-06T02:26:10;14.30;;;9.60;;
75535;SDS011;64119;52.070;20.804;2023-08-06T02:28:38;12.20;;;8.30;;
75535;SDS011;64119;52.070;20.804;2023-08-06T02:31:05;16.40;;;9.40;;
75535;SDS011;64119;52.070;20.804;2023-08-06T02:33:34;15.30;;;9.70;;
75535;SDS011;64119;52.070;20.804;2023-08-06T02:36:02;17.50;;;10.10;;
75535;SDS011;64119;52.070;20.804;2023-08-06T02:38:32;12.10;;;8.80;;
75535;SDS011;64119;52.070;20.804;2023-08-06T02:41:03;13.00;;;9.60;;
75535;SDS011;64119;52.070;20.804;2023-08-06T02:43:32;17.40;;;10.60;;
75535;SDS011;64119;52.070;20.804;2023-08-06T02:46:00;15.10;;;10.30;;
75535;SDS011;64119;52.070;20.804;2023-08-06T02:48:28;14.50;;;8.10;;
75535;SDS011;64119;52.070;20.804;2023-08-06T02:50:57;13.00;;;9.20;;
75535;SDS011;64119;52.070;20.804;2023-08-06T02:53:27;11.20;;;8.20;;
75535;SDS011;64119;52.070;20.804;2023-08-06T02:55:55;13.70;;;9.10;;
75535;SDS011;64119;52.070;20.804;2023-08-06T02:58:26;11.60;;;8.50;;
75535;SDS011;64119;52.070;20.804;2023-08-06T03:01:04;13.60;;;8.30;;
75535;SDS011;64119;52.070;20.804;2023-08-06T03:03:42;14.70;;;9.60;;
75535;SDS011;64119;52.070;20.804;2023-08-06T03:06:10;13.80;;;8.50;;
75535;SDS011;64119;52.070;20.804;2023-08-06T03:08:43;12.50;;;8.20;;
75535;SDS011;64119;52.070;20.804;2023-08-06T03:11:11;12.90;;;7.90;;
75535;SDS011;64119;52.070;20.804;2023-08-06T03:13:39;12.30;;;8.40;;
75535;SDS011;64119;52.070;20.804;2023-08-06T03:16:07;12.20;;;8.80;;
75535;SDS011;64119;52.070;20.804;2023-08-06T03:18:36;15.20;;;8.90;;
75535;SDS011;64119;52.070;20.804;2023-08-06T03:23:33;12.70;;;8.00;;
75535;SDS011;64119;52.070;20.804;2023-08-06T03:26:03;15.10;;;8.70;;
75535;SDS011;64119;52.070;20.804;2023-08-06T03:28:31;10.70;;;7.70;;
75535;SDS011;64119;52.070;20.804;2023-08-06T03:31:03;12.30;;;8.40;;
75535;SDS011;64119;52.070;20.804;2023-08-06T03:33:36;14.90;;;9.20;;
75535;SDS011;64119;52.070;20.804;2023-08-06T03:36:05;15.90;;;9.60;;
75535;SDS011;64119;52.070;20.804;2023-08-06T03:38:34;15.30;;;9.00;;
75535;SDS011;64119;52.070;20.804;2023-08-06T03:41:03;16.50;;;10.20;;
75535;SDS011;64119;52.070;20.804;2023-08-06T03:43:31;15.40;;;9.50;;
75535;SDS011;64119;52.070;20.804;2023-08-06T03:46:00;16.80;;;10.20;;
75535;SDS011;64119;52.070;20.804;2023-08-06T03:48:28;14.10;;;9.70;;
75535;SDS011;64119;52.070;20.804;2023-08-06T03:50:55;14.80;;;10.20;;
75535;SDS011;64119;52.070;20.804;2023-08-06T03:53:24;16.30;;;9.40;;
75535;SDS011;64119;52.070;20.804;2023-08-06T03:55:52;15.50;;;9.80;;
75535;SDS011;64119;52.070;20.804;2023-08-06T03:58:20;17.70;;;11.20;;
75535;SDS011;64119;52.070;20.804;2023-08-06T04:00:48;14.70;;;9.90;;
75535;SDS011;64119;52.070;20.804;2023-08-06T04:03:16;15.30;;;10.90;;
75535;SDS011;64119;52.070;20.804;2023-08-06T04:05:44;18.60;;;12.40;;
75535;SDS011;64119;52.070;20.804;2023-08-06T04:08:12;20.20;;;11.50;;
75535;SDS011;64119;52.070;20.804;2023-08-06T04:10:40;18.80;;;10.90;;
75535;SDS011;64119;52.070;20.804;2023-08-06T04:13:07;19.20;;;11.90;;
75535;SDS011;64119;52.070;20.804;2023-08-06T04:15:35;19.40;;;12.70;;
75535;SDS011;64119;52.070;20.804;2023-08-06T04:18:03;19.90;;;12.10;;
75535;SDS011;64119;52.070;20.804;2023-08-06T04:20:31;20.60;;;12.70;;
75535;SDS011;64119;52.070;20.804;2023-08-06T04:22:58;20.80;;;12.60;;
75535;SDS011;64119;52.070;20.804;2023-08-06T04:25:26;19.50;;;12.00;;
75535;SDS011;64119;52.070;20.804;2023-08-06T04:27:54;20.90;;;12.00;;
75535;SDS011;64119;52.070;20.804;2023-08-06T04:30:22;21.00;;;15.30;;
75535;SDS011;64119;52.070;20.804;2023-08-06T04:32:50;19.80;;;13.60;;
75535;SDS011;64119;52.070;20.804;2023-08-06T04:35:18;24.80;;;14.50;;
75535;SDS011;64119;52.070;20.804;2023-08-06T04:37:46;19.60;;;13.30;;
75535;SDS011;64119;52.070;20.804;2023-08-06T04:40:14;21.10;;;13.60;;
75535;SDS011;64119;52.070;20.804;2023-08-06T04:42:42;19.30;;;12.70;;
75535;SDS011;64119;52.070;20.804;2023-08-06T04:45:10;18.70;;;12.20;;
75535;SDS011;64119;52.070;20.804;2023-08-06T04:47:38;18.60;;;12.80;;
75535;SDS011;64119;52.070;20.804;2023-08-06T04:50:06;18.90;;;13.30;;
75535;SDS011;64119;52.070;20.804;2023-08-06T04:52:34;19.20;;;12.40;;
75535;SDS011;64119;52.070;20.804;2023-08-06T04:55:01;19.10;;;12.90;;
75535;SDS011;64119;52.070;20.804;2023-08-06T04:57:29;19.60;;;12.60;;
75535;SDS011;64119;52.070;20.804;2023-08-06T04:59:57;19.10;;;12.40;;
75535;SDS011;64119;52.070;20.804;2023-08-06T05:02:25;21.60;;;12.80;;
75535;SDS011;64119;52.070;20.804;2023-08-06T05:04:52;18.60;;;12.10;;
75535;SDS011;64119;52.070;20.804;2023-08-06T05:07:20;15.90;;;11.20;;
75535;SDS011;64119;52.070;20.804;2023-08-06T05:09:48;18.50;;;12.80;;
75535;SDS011;64119;52.070;20.804;2023-08-06T05:12:16;18.30;;;12.30;;
75535;SDS011;64119;52.070;20.804;2023-08-06T05:14:44;17.20;;;11.70;;
75535;SDS011;64119;52.070;20.804;2023-08-06T05:17:12;18.70;;;13.10;;
75535;SDS011;64119;52.070;20.804;2023-08-06T05:19:39;17.60;;;12.20;;
75535;SDS011;64119;52.070;20.804;2023-08-06T05:22:07;16.50;;;12.90;;
75535;SDS011;64119;52.070;20.804;2023-08-06T05:24:35;17.90;;;12.30;;
75535;SDS011;64119;52.070;20.804;2023-08-06T05:27:03;17.10;;;11.90;;
75535;SDS011;64119;52.070;20.804;2023-08-06T05:29:31;18.50;;;12.60;;
75535;SDS011;64119;52.070;20.804;2023-08-06T05:31:58;16.80;;;11.40;;
75535;SDS011;64119;52.070;20.804;2023-08-06T05:34:26;15.00;;;11.70;;
75535;SDS011;64119;52.070;20.804;2023-08-06T05:36:54;16.00;;;11.80;;
75535;SDS011;64119;52.070;20.804;2023-08-06T05:39:22;15.50;;;12.10;;
75535;SDS011;64119;52.070;20.804;2023-08-06T05:41:50;16.60;;;12.20;;
75535;SDS011;64119;52.070;20.804;2023-08-06T05:44:18;15.80;;;11.70;;
75535;SDS011;64119;52.070;20.804;2023-08-06T05:46:46;14.90;;;11.80;;
75535;SDS011;64119;52.070;20.804;2023-08-06T05:49:14;13.90;;;10.70;;
75535;SDS011;64119;52.070;20.804;2023-08-06T05:51:42;16.20;;;11.80;;
75535;SDS011;64119;52.070;20.804;2023-08-06T05:54:09;16.70;;;11.10;;
75535;SDS011;64119;52.070;20.804;2023-08-06T05:56:37;15.10;;;11.40;;
75535;SDS011;64119;52.070;20.804;2023-08-06T05:59:05;17.10;;;11.80;;
75535;SDS011;64119;52.070;20.804;2023-08-06T06:01:32;14.10;;;11.80;;
75535;SDS011;64119;52.070;20.804;2023-08-06T06:04:00;14.00;;;10.50;;
75535;SDS011;64119;52.070;20.804;2023-08-06T06:06:28;15.50;;;11.20;;
75535;SDS011;64119;52.070;20.804;2023-08-06T06:08:56;12.70;;;10.80;;
75535;SDS011;64119;52.070;20.804;2023-08-06T06:11:23;12.70;;;10.20;;
75535;SDS011;64119;52.070;20.804;2023-08-06T06:13:51;13.30;;;10.20;;
75535;SDS011;64119;52.070;20.804;2023-08-06T06:16:19;13.40;;;10.50;;
75535;SDS011;64119;52.070;20.804;2023-08-06T06:18:47;13.20;;;10.20;;
75535;SDS011;64119;52.070;20.804;2023-08-06T06:21:15;12.10;;;9.60;;
75535;SDS011;64119;52.070;20.804;2023-08-06T06:23:43;13.00;;;10.50;;
75535;SDS011;64119;52.070;20.804;2023-08-06T06:26:10;15.50;;;10.60;;
75535;SDS011;64119;52.070;20.804;2023-08-06T06:28:38;12.50;;;10.10;;
75535;SDS011;64119;52.070;20.804;2023-08-06T06:31:06;13.10;;;9.40;;
75535;SDS011;64119;52.070;20.804;2023-08-06T06:33:33;14.60;;;10.00;;
75535;SDS011;64119;52.070;20.804;2023-08-06T06:36:01;13.80;;;10.00;;
75535;SDS011;64119;52.070;20.804;2023-08-06T06:38:32;13.40;;;10.40;;
75535;SDS011;64119;52.070;20.804;2023-08-06T06:40:59;12.90;;;9.90;;
75535;SDS011;64119;52.070;20.804;2023-08-06T06:43:27;11.50;;;10.20;;
75535;SDS011;64119;52.070;20.804;2023-08-06T06:45:58;13.30;;;9.30;;
75535;SDS011;64119;52.070;20.804;2023-08-06T06:48:30;12.30;;;10.10;;
75535;SDS011;64119;52.070;20.804;2023-08-06T06:51:00;11.60;;;9.50;;
75535;SDS011;64119;52.070;20.804;2023-08-06T06:53:28;11.10;;;8.90;;
75535;SDS011;64119;52.070;20.804;2023-08-06T06:55:56;13.70;;;10.90;;
75535;SDS011;64119;52.070;20.804;2023-08-06T06:58:28;14.80;;;10.20;;
75535;SDS011;64119;52.070;20.804;2023-08-06T07:00:56;12.20;;;9.80;;
75535;SDS011;64119;52.070;20.804;2023-08-06T07:03:24;13.30;;;9.00;;
75535;SDS011;64119;52.070;20.804;2023-08-06T07:05:56;16.30;;;10.40;;
75535;SDS011;64119;52.070;20.804;2023-08-06T07:08:25;12.30;;;9.00;;
75535;SDS011;64119;52.070;20.804;2023-08-06T07:11:00;10.10;;;8.80;;
75535;SDS011;64119;52.070;20.804;2023-08-06T07:13:29;12.70;;;8.20;;
75535;SDS011;64119;52.070;20.804;2023-08-06T07:15:57;10.50;;;8.60;;
75535;SDS011;64119;52.070;20.804;2023-08-06T07:18:25;14.40;;;9.20;;
75535;SDS011;64119;52.070;20.804;2023-08-06T07:20:53;14.60;;;9.30;;
75535;SDS011;64119;52.070;20.804;2023-08-06T07:23:23;9.90;;;8.20;;
75535;SDS011;64119;52.070;20.804;2023-08-06T07:25:52;10.20;;;8.80;;
75535;SDS011;64119;52.070;20.804;2023-08-06T07:28:20;11.10;;;8.70;;
75535;SDS011;64119;52.070;20.804;2023-08-06T07:30:48;11.50;;;8.60;;
75535;SDS011;64119;52.070;20.804;2023-08-06T07:33:16;13.60;;;9.40;;
75535;SDS011;64119;52.070;20.804;2023-08-06T07:35:43;11.30;;;9.00;;
75535;SDS011;64119;52.070;20.804;2023-08-06T07:38:11;14.20;;;9.60;;
75535;SDS011;64119;52.070;20.804;2023-08-06T07:40:39;11.10;;;8.40;;
75535;SDS011;64119;52.070;20.804;2023-08-06T07:43:06;9.50;;;8.10;;
75535;SDS011;64119;52.070;20.804;2023-08-06T07:45:35;11.60;;;8.10;;
75535;SDS011;64119;52.070;20.804;2023-08-06T07:48:03;12.20;;;9.50;;
75535;SDS011;64119;52.070;20.804;2023-08-06T07:50:32;12.40;;;8.80;;
75535;SDS011;64119;52.070;20.804;2023-08-06T07:52:59;9.80;;;8.80;;
75535;SDS011;64119;52.070;20.804;2023-08-06T07:55:27;10.30;;;8.00;;
75535;SDS011;64119;52.070;20.804;2023-08-06T07:57:55;13.00;;;8.70;;
75535;SDS011;64119;52.070;20.804;2023-08-06T08:00:23;11.80;;;8.30;;
75535;SDS011;64119;52.070;20.804;2023-08-06T08:02:51;13.20;;;8.60;;
75535;SDS011;64119;52.070;20.804;2023-08-06T08:05:19;12.30;;;8.90;;
75535;SDS011;64119;52.070;20.804;2023-08-06T08:07:47;11.70;;;9.00;;
75535;SDS011;64119;52.070;20.804;2023-08-06T08:10:14;9.50;;;8.00;;
75535;SDS011;64119;52.070;20.804;2023-08-06T08:12:43;14.40;;;9.20;;
75535;SDS011;64119;52.070;20.804;2023-08-06T08:15:10;11.80;;;8.50;;
75535;SDS011;64119;52.070;20.804;2023-08-06T08:17:38;10.40;;;8.00;;
75535;SDS011;64119;52.070;20.804;2023-08-06T08:20:06;10.30;;;7.90;;
75535;SDS011;64119;52.070;20.804;2023-08-06T08:22:34;12.60;;;8.30;;
75535;SDS011;64119;52.070;20.804;2023-08-06T08:25:02;9.40;;;8.50;;
75535;SDS011;64119;52.070;20.804;2023-08-06T08:27:30;12.90;;;8.70;;
75535;SDS011;64119;52.070;20.804;2023-08-06T08:29:58;13.00;;;9.10;;
75535;SDS011;64119;52.070;20.804;2023-08-06T08:32:26;10.50;;;8.20;;
75535;SDS011;64119;52.070;20.804;2023-08-06T08:34:53;10.50;;;8.00;;
75535;SDS011;64119;52.070;20.804;2023-08-06T08:37:21;12.80;;;9.00;;
75535;SDS011;64119;52.070;20.804;2023-08-06T08:39:49;10.00;;;8.80;;
75535;SDS011;64119;52.070;20.804;2023-08-06T08:42:17;12.40;;;8.30;;
75535;SDS011;64119;52.070;20.804;2023-08-06T08:44:46;10.00;;;9.00;;
75535;SDS011;64119;52.070;20.804;2023-08-06T08:47:13;11.40;;;8.90;;
75535;SDS011;64119;52.070;20.804;2023-08-06T08:49:43;10.40;;;8.50;;
75535;SDS011;64119;52.070;20.804;2023-08-06T08:52:13;10.40;;;7.50;;
75535;SDS011;64119;52.070;20.804;2023-08-06T08:54:44;11.70;;;7.80;;
75535;SDS011;64119;52.070;20.804;2023-08-06T08:59:41;8.50;;;7.20;;
75535;SDS011;64119;52.070;20.804;2023-08-06T09:02:09;9.30;;;8.30;;
75535;SDS011;64119;52.070;20.804;2023-08-06T09:04:40;11.50;;;8.50;;
75535;SDS011;64119;52.070;20.804;2023-08-06T09:07:08;12.90;;;8.90;;
75535;SDS011;64119;52.070;20.804;2023-08-06T09:09:40;11.10;;;8.30;;
75535;SDS011;64119;52.070;20.804;2023-08-06T09:12:14;10.80;;;9.00;;
75535;SDS011;64119;52.070;20.804;2023-08-06T09:14:43;11.50;;;8.10;;
75535;SDS011;64119;52.070;20.804;2023-08-06T09:17:11;10.20;;;8.40;;
75535;SDS011;64119;52.070;20.804;2023-08-06T09:19:42;11.30;;;8.70;;
75535;SDS011;64119;52.070;20.804;2023-08-06T09:22:15;8.90;;;8.00;;
75535;SDS011;64119;52.070;20.804;2023-08-06T09:24:43;8.50;;;7.60;;
75535;SDS011;64119;52.070;20.804;2023-08-06T09:27:14;9.50;;;7.60;;
75535;SDS011;64119;52.070;20.804;2023-08-06T09:29:43;9.10;;;7.90;;
75535;SDS011;64119;52.070;20.804;2023-08-06T09:32:12;8.50;;;7.30;;
75535;SDS011;64119;52.070;20.804;2023-08-06T09:34:45;9.30;;;8.00;;
75535;SDS011;64119;52.070;20.804;2023-08-06T09:37:13;9.90;;;7.90;;
75535;SDS011;64119;52.070;20.804;2023-08-06T09:39:41;8.60;;;7.00;;
75535;SDS011;64119;52.070;20.804;2023-08-06T09:42:09;8.50;;;7.50;;
75535;SDS011;64119;52.070;20.804;2023-08-06T09:44:38;10.00;;;7.70;;
75535;SDS011;64119;52.070;20.804;2023-08-06T09:47:08;8.40;;;7.30;;
75535;SDS011;64119;52.070;20.804;2023-08-06T09:52:03;10.10;;;6.50;;
75535;SDS011;64119;52.070;20.804;2023-08-06T09:54:32;9.20;;;8.10;;
75535;SDS011;64119;52.070;20.804;2023-08-06T09:57:03;11.60;;;7.30;;
75535;SDS011;64119;52.070;20.804;2023-08-06T09:59:32;7.60;;;6.30;;
75535;SDS011;64119;52.070;20.804;2023-08-06T10:04:28;9.50;;;6.00;;
75535;SDS011;64119;52.070;20.804;2023-08-06T10:07:07;8.20;;;6.90;;
75535;SDS011;64119;52.070;20.804;2023-08-06T10:09:35;7.40;;;6.40;;
75535;SDS011;64119;52.070;20.804;2023-08-06T10:12:04;10.00;;;5.80;;
75535;SDS011;64119;52.070;20.804;2023-08-06T10:14:32;6.60;;;5.60;;
75535;SDS011;64119;52.070;20.804;2023-08-06T10:17:03;7.50;;;6.20;;
75535;SDS011;64119;52.070;20.804;2023-08-06T10:19:31;6.90;;;5.60;;
75535;SDS011;64119;52.070;20.804;2023-08-06T10:22:15;9.40;;;6.00;;
75535;SDS011;64119;52.070;20.804;2023-08-06T10:24:51;9.40;;;6.20;;
75535;SDS011;64119;52.070;20.804;2023-08-06T10:27:48;7.20;;;5.80;;
75535;SDS011;64119;52.070;20.804;2023-08-06T10:32:53;7.40;;;6.30;;
75535;SDS011;64119;52.070;20.804;2023-08-06T10:35:28;5.80;;;5.30;;
75535;SDS011;64119;52.070;20.804;2023-08-06T10:40:39;6.50;;;5.60;;
75535;SDS011;64119;52.070;20.804;2023-08-06T10:43:08;6.00;;;5.30;;
75535;SDS011;64119;52.070;20.804;2023-08-06T10:45:52;6.30;;;4.90;;
75535;SDS011;64119;52.070;20.804;2023-08-06T10:48:35;6.70;;;4.90;;
75535;SDS011;64119;52.070;20.804;2023-08-06T10:51:08;8.60;;;5.30;;
75535;SDS011;64119;52.070;20.804;2023-08-06T10:53:47;6.20;;;5.10;;
75535;SDS011;64119;52.070;20.804;2023-08-06T10:58:52;9.00;;;5.60;;
75535;SDS011;64119;52.070;20.804;2023-08-06T11:01:22;7.50;;;6.10;;
75535;SDS011;64119;52.070;20.804;2023-08-06T11:03:51;8.90;;;6.50;;
75535;SDS011;64119;52.070;20.804;2023-08-06T11:06:21;7.20;;;6.50;;
75535;SDS011;64119;52.070;20.804;2023-08-06T11:08:51;6.80;;;6.10;;
75535;SDS011;64119;52.070;20.804;2023-08-06T11:11:22;8.30;;;6.40;;
75535;SDS011;64119;52.070;20.804;2023-08-06T11:13:51;10.40;;;6.40;;
75535;SDS011;64119;52.070;20.804;2023-08-06T11:16:20;7.90;;;6.20;;
75535;SDS011;64119;52.070;20.804;2023-08-06T11:18:53;7.50;;;6.20;;
75535;SDS011;64119;52.070;20.804;2023-08-06T11:21:22;6.30;;;5.70;;
75535;SDS011;64119;52.070;20.804;2023-08-06T11:23:52;6.10;;;5.50;;
75535;SDS011;64119;52.070;20.804;2023-08-06T11:26:21;7.80;;;5.50;;
75535;SDS011;64119;52.070;20.804;2023-08-06T11:28:51;6.70;;;5.90;;
75535;SDS011;64119;52.070;20.804;2023-08-06T11:31:22;9.00;;;5.60;;
75535;SDS011;64119;52.070;20.804;2023-08-06T11:33:51;5.50;;;4.80;;
75535;SDS011;64119;52.070;20.804;2023-08-06T11:38:58;5.20;;;4.70;;
75535;SDS011;64119;52.070;20.804;2023-08-06T11:41:30;5.70;;;5.20;;
75535;SDS011;64119;52.070;20.804;2023-08-06T11:43:58;7.30;;;5.10;;
75535;SDS011;64119;52.070;20.804;2023-08-06T11:46:26;5.30;;;4.60;;
75535;SDS011;64119;52.070;20.804;2023-08-06T11:48:55;5.90;;;4.80;;
75535;SDS011;64119;52.070;20.804;2023-08-06T11:51:26;6.40;;;4.70;;
75535;SDS011;64119;52.070;20.804;2023-08-06T11:53:58;5.20;;;4.70;;
75535;SDS011;64119;52.070;20.804;2023-08-06T11:56:26;7.70;;;5.10;;
75535;SDS011;64119;52.070;20.804;2023-08-06T11:58:55;6.20;;;4.60;;
75535;SDS011;64119;52.070;20.804;2023-08-06T12:01:23;6.20;;;5.00;;
75535;SDS011;64119;52.070;20.804;2023-08-06T12:03:52;6.30;;;4.40;;
75535;SDS011;64119;52.070;20.804;2023-08-06T12:06:28;5.50;;;4.50;;
75535;SDS011;64119;52.070;20.804;2023-08-06T12:08:56;6.80;;;4.60;;
75535;SDS011;64119;52.070;20.804;2023-08-06T12:11:23;5.90;;;4.80;;
75535;SDS011;64119;52.070;20.804;2023-08-06T12:13:51;5.50;;;4.90;;
75535;SDS011;64119;52.070;20.804;2023-08-06T12:16:19;6.50;;;5.00;;
75535;SDS011;64119;52.070;20.804;2023-08-06T12:18:49;6.40;;;4.70;;
75535;SDS011;64119;52.070;20.804;2023-08-06T12:21:17;6.90;;;4.90;;
75535;SDS011;64119;52.070;20.804;2023-08-06T12:23:44;5.80;;;4.80;;
75535;SDS011;64119;52.070;20.804;2023-08-06T12:26:12;4.90;;;4.40;;
75535;SDS011;64119;52.070;20.804;2023-08-06T12:28:40;6.40;;;4.80;;
75535;SDS011;64119;52.070;20.804;2023-08-06T12:31:08;5.70;;;5.00;;
75535;SDS011;64119;52.070;20.804;2023-08-06T12:33:35;5.70;;;4.80;;
75535;SDS011;64119;52.070;20.804;2023-08-06T12:36:03;5.50;;;4.50;;
75535;SDS011;64119;52.070;20.804;2023-08-06T12:38:31;6.50;;;5.20;;
75535;SDS011;64119;52.070;20.804;2023-08-06T12:41:01;7.40;;;4.60;;
75535;SDS011;64119;52.070;20.804;2023-08-06T12:43:30;8.50;;;4.90;;
75535;SDS011;64119;52.070;20.804;2023-08-06T12:45:57;6.70;;;4.60;;
75535;SDS011;64119;52.070;20.804;2023-08-06T12:48:25;5.00;;;4.30;;
75535;SDS011;64119;52.070;20.804;2023-08-06T12:50:53;6.40;;;4.90;;
75535;SDS011;64119;52.070;20.804;2023-08-06T12:53:21;7.30;;;5.40;;
75535;SDS011;64119;52.070;20.804;2023-08-06T12:55:50;6.50;;;4.90;;
75535;SDS011;64119;52.070;20.804;2023-08-06T12:58:18;6.20;;;5.00;;
75535;SDS011;64119;52.070;20.804;2023-08-06T13:00:46;6.50;;;5.00;;
75535;SDS011;64119;52.070;20.804;2023-08-06T13:03:14;5.90;;;4.40;;
75535;SDS011;64119;52.070;20.804;2023-08-06T13:05:41;5.50;;;4.10;;
75535;SDS011;64119;52.070;20.804;2023-08-06T13:08:10;4.50;;;3.90;;
75535;SDS011;64119;52.070;20.804;2023-08-06T13:10:38;5.70;;;4.00;;
75535;SDS011;64119;52.070;20.804;2023-08-06T13:13:06;5.50;;;3.80;;
75535;SDS011;64119;52.070;20.804;2023-08-06T13:15:34;5.50;;;3.70;;
75535;SDS011;64119;52.070;20.804;2023-08-06T13:18:01;3.80;;;3.30;;
75535;SDS011;64119;52.070;20.804;2023-08-06T13:20:30;4.50;;;3.00;;
75535;SDS011;64119;52.070;20.804;2023-08-06T13:22:58;4.80;;;3.30;;
75535;SDS011;64119;52.070;20.804;2023-08-06T13:25:28;5.00;;;4.00;;
75535;SDS011;64119;52.070;20.804;2023-08-06T13:27:57;4.70;;;3.50;;
75535;SDS011;64119;52.070;20.804;2023-08-06T13:30:24;5.40;;;3.60;;
75535;SDS011;64119;52.070;20.804;2023-08-06T13:32:52;5.20;;;4.40;;
75535;SDS011;64119;52.070;20.804;2023-08-06T13:35:20;5.70;;;3.90;;
75535;SDS011;64119;52.070;20.804;2023-08-06T13:37:48;5.10;;;3.80;;
75535;SDS011;64119;52.070;20.804;2023-08-06T13:40:16;4.90;;;3.80;;
75535;SDS011;64119;52.070;20.804;2023-08-06T13:42:44;6.00;;;4.10;;
75535;SDS011;64119;52.070;20.804;2023-08-06T13:45:11;5.00;;;4.30;;
75535;SDS011;64119;52.070;20.804;2023-08-06T13:47:39;6.20;;;4.70;;
75535;SDS011;64119;52.070;20.804;2023-08-06T13:50:07;6.80;;;4.30;;
75535;SDS011;64119;52.070;20.804;2023-08-06T13:52:35;6.10;;;4.50;;
75535;SDS011;64119;52.070;20.804;2023-08-06T13:55:03;5.30;;;4.40;;
75535;SDS011;64119;52.070;20.804;2023-08-06T13:57:31;6.20;;;4.20;;
75535;SDS011;64119;52.070;20.804;2023-08-06T13:59:59;5.00;;;4.10;;
75535;SDS011;64119;52.070;20.804;2023-08-06T14:02:38;6.10;;;4.30;;
75535;SDS011;64119;52.070;20.804;2023-08-06T14:05:07;5.60;;;4.20;;
75535;SDS011;64119;52.070;20.804;2023-08-06T14:07:35;5.00;;;3.60;;
75535;SDS011;64119;52.070;20.804;2023-08-06T14:10:03;6.30;;;4.30;;
75535;SDS011;64119;52.070;20.804;2023-08-06T14:12:32;5.50;;;4.30;;
75535;SDS011;64119;52.070;20.804;2023-08-06T14:14:59;6.30;;;4.10;;
75535;SDS011;64119;52.070;20.804;2023-08-06T14:17:27;3.40;;;2.90;;
75535;SDS011;64119;52.070;20.804;2023-08-06T14:19:55;4.50;;;3.30;;
75535;SDS011;64119;52.070;20.804;2023-08-06T14:22:23;5.60;;;2.80;;
75535;SDS011;64119;52.070;20.804;2023-08-06T14:24:51;2.90;;;1.90;;
75535;SDS011;64119;52.070;20.804;2023-08-06T14:27:19;2.80;;;1.90;;
75535;SDS011;64119;52.070;20.804;2023-08-06T14:29:46;2.50;;;2.00;;
75535;SDS011;64119;52.070;20.804;2023-08-06T14:32:14;2.90;;;1.60;;
75535;SDS011;64119;52.070;20.804;2023-08-06T14:34:45;3.60;;;1.80;;
75535;SDS011;64119;52.070;20.804;2023-08-06T14:37:13;2.70;;;1.70;;
75535;SDS011;64119;52.070;20.804;2023-08-06T14:39:40;2.40;;;1.70;;
75535;SDS011;64119;52.070;20.804;2023-08-06T14:42:08;2.70;;;1.90;;
75535;SDS011;64119;52.070;20.804;2023-08-06T14:44:36;2.80;;;1.50;;
75535;SDS011;64119;52.070;20.804;2023-08-06T14:47:04;2.20;;;1.40;;
75535;SDS011;64119;52.070;20.804;2023-08-06T14:49:31;2.90;;;1.30;;
75535;SDS011;64119;52.070;20.804;2023-08-06T14:51:59;2.10;;;1.30;;
75535;SDS011;64119;52.070;20.804;2023-08-06T14:54:29;1.70;;;1.40;;
75535;SDS011;64119;52.070;20.804;2023-08-06T14:56:57;2.10;;;1.20;;
75535;SDS011;64119;52.070;20.804;2023-08-06T14:59:24;2.80;;;1.40;;